Time;durP1;ratioP1;P1;durP2;ratioP2;P2;SDS_P1;SDS_P2;PMS_P1;PMS_P2;Temp;Humidity;BMP_temperature;BMP_pressure;BME280_temperature;BME280_humidity;BME280_pressure;Samples;Min_cycle;Max_cycle;Signal;HPM_P1;HPM_P2
2022/05/05 00:00:06;;;;;;;;;14.25;14.25;;;;;;;;5040585;28;51170;-47
2022/05/05 00:02:31;;;;;;;;;15.25;14.75;;;;;;;;5035756;28;51034;-48
2022/05/05 00:04:56;;;;;;;;;16.25;15.25;;;;;;;;5037610;28;50889;-49
2022/05/05 00:07:22;;;;;;;;;18.00;15.25;;;;;;;;5018084;28;51035;-48
2022/05/05 00:09:47;;;;;;;;;16.50;14.75;;;;;;;;5034491;28;51111;-49
2022/05/05 00:14:56;;;;;;;;;15.00;14.50;;;;;;;;5033461;28;51231;-47
2022/05/05 00:17:22;;;;;;;;;16.75;16.00;;;;;;;;5036792;28;51012;-49
2022/05/05 00:19:47;;;;;;;;;18.75;17.75;;;;;;;;5033624;28;51105;-47
2022/05/05 00:22:12;;;;;;;;;16.50;16.00;;;;;;;;5045845;28;50917;-47
2022/05/05 00:24:38;;;;;;;;;15.75;14.75;;;;;;;;5049304;28;51365;-48
2022/05/05 00:27:04;;;;;;;;;14.50;14.00;;;;;;;;5035791;28;51272;-48
2022/05/05 00:29:29;;;;;;;;;13.75;13.00;;;;;;;;5034000;28;50989;-48
2022/05/05 00:31:54;;;;;;;;;12.00;12.00;;;;;;;;5040456;28;51191;-47
2022/05/05 00:34:20;;;;;;;;;14.00;13.75;;;;;;;;5041226;28;51070;-50
2022/05/05 00:36:45;;;;;;;;;13.75;13.75;;;;;;;;5034848;28;51131;-48
2022/05/05 00:39:11;;;;;;;;;14.00;13.00;;;;;;;;5041457;28;51027;-49
2022/05/05 00:41:37;;;;;;;;;15.00;13.50;;;;;;;;5034963;28;51064;-48
2022/05/05 00:44:04;;;;;;;;;13.75;13.75;;;;;;;;5034850;28;51342;-47
2022/05/05 00:46:29;;;;;;;;;15.00;14.75;;;;;;;;5047461;28;50952;-49
2022/05/05 00:48:55;;;;;;;;;18.00;17.00;;;;;;;;5055168;28;51016;-49
2022/05/05 00:51:20;;;;;;;;;13.25;13.00;;;;;;;;5043072;28;51106;-49
2022/05/05 00:53:46;;;;;;;;;15.25;14.50;;;;;;;;5034758;28;51081;-50
2022/05/05 00:56:13;;;;;;;;;15.00;13.00;;;;;;;;5038206;28;51110;-49
2022/05/05 00:58:39;;;;;;;;;14.00;13.00;;;;;;;;5050802;28;51133;-48
2022/05/05 01:01:04;;;;;;;;;12.50;12.50;;;;;;;;5027385;28;51093;-48
2022/05/05 01:03:33;;;;;;;;;13.00;12.25;;;;;;;;5016495;28;52591;-50
2022/05/05 01:05:59;;;;;;;;;11.75;11.25;;;;;;;;5035403;28;51118;-49
2022/05/05 01:08:24;;;;;;;;;10.00;10.00;;;;;;;;5019099;28;51005;-50
2022/05/05 01:10:49;;;;;;;;;11.00;9.75;;;;;;;;5035063;28;51119;-47
2022/05/05 01:13:15;;;;;;;;;9.50;9.25;;;;;;;;5048884;28;51206;-52
2022/05/05 01:15:41;;;;;;;;;10.00;8.25;;;;;;;;5036743;28;51079;-48
2022/05/05 01:18:06;;;;;;;;;10.25;9.25;;;;;;;;5052241;28;51359;-47
2022/05/05 01:20:32;;;;;;;;;9.25;8.75;;;;;;;;5045762;28;50822;-50
2022/05/05 01:22:57;;;;;;;;;9.50;9.50;;;;;;;;5055193;28;50891;-49
2022/05/05 01:28:13;;;;;;;;;9.00;8.25;;;;;;;;5046510;28;51178;-48
2022/05/05 01:30:39;;;;;;;;;9.75;9.75;;;;;;;;5025242;28;51198;-49
2022/05/05 01:33:11;;;;;;;;;8.50;7.75;;;;;;;;5044437;28;51209;-49
2022/05/05 01:35:36;;;;;;;;;11.00;10.00;;;;;;;;5033723;28;52056;-49
2022/05/05 01:38:02;;;;;;;;;10.25;10.00;;;;;;;;5039098;28;51226;-48
2022/05/05 01:40:27;;;;;;;;;8.75;8.75;;;;;;;;5043436;28;51058;-49
2022/05/05 01:42:52;;;;;;;;;10.00;9.00;;;;;;;;5036845;28;51766;-49
2022/05/05 01:45:19;;;;;;;;;8.75;8.75;;;;;;;;5046678;28;53208;-48
2022/05/05 01:47:44;;;;;;;;;9.50;8.50;;;;;;;;5053499;28;51045;-48
2022/05/05 01:50:09;;;;;;;;;11.00;10.25;;;;;;;;5052988;28;50905;-48
2022/05/05 01:52:35;;;;;;;;;8.50;8.50;;;;;;;;5052065;28;50984;-49
2022/05/05 01:55:00;;;;;;;;;8.00;8.00;;;;;;;;5047826;28;51837;-48
2022/05/05 01:57:25;;;;;;;;;11.25;10.00;;;;;;;;5039956;28;51252;-48
2022/05/05 01:59:50;;;;;;;;;9.75;9.00;;;;;;;;5032574;28;51355;-50
2022/05/05 02:02:16;;;;;;;;;12.00;9.75;;;;;;;;5034625;28;51109;-49
2022/05/05 02:04:41;;;;;;;;;11.75;11.75;;;;;;;;5039888;28;51852;-49
2022/05/05 02:07:06;;;;;;;;;9.00;8.25;;;;;;;;5037941;28;51135;-50
2022/05/05 02:09:31;;;;;;;;;9.00;9.00;;;;;;;;5027313;28;50829;-49
2022/05/05 02:11:56;;;;;;;;;9.50;9.00;;;;;;;;5052675;28;51154;-48
2022/05/05 02:14:23;;;;;;;;;11.00;10.00;;;;;;;;5052713;28;51142;-47
2022/05/05 02:16:48;;;;;;;;;12.00;11.00;;;;;;;;5038971;28;51174;-50
2022/05/05 02:19:14;;;;;;;;;9.25;9.00;;;;;;;;5043901;28;51070;-48
2022/05/05 02:21:39;;;;;;;;;10.50;10.00;;;;;;;;5050570;28;52902;-48
2022/05/05 02:24:05;;;;;;;;;9.00;9.00;;;;;;;;5041285;28;51820;-48
2022/05/05 02:26:30;;;;;;;;;10.00;10.00;;;;;;;;5052209;28;51083;-49
2022/05/05 02:28:55;;;;;;;;;11.00;9.50;;;;;;;;5040233;28;51088;-48
2022/05/05 02:31:21;;;;;;;;;11.00;9.75;;;;;;;;5036554;28;51354;-48
2022/05/05 02:33:46;;;;;;;;;10.50;9.50;;;;;;;;5033310;28;51030;-48
2022/05/05 02:38:55;;;;;;;;;14.00;13.50;;;;;;;;5051021;28;51016;-47
2022/05/05 02:41:20;;;;;;;;;11.25;11.25;;;;;;;;5035687;28;51394;-50
2022/05/05 02:43:45;;;;;;;;;16.50;14.75;;;;;;;;5046657;28;51383;-49
2022/05/05 02:46:11;;;;;;;;;13.00;12.50;;;;;;;;5051907;28;51003;-51
2022/05/05 02:48:36;;;;;;;;;16.50;12.00;;;;;;;;5050730;28;51132;-46
2022/05/05 02:51:01;;;;;;;;;13.75;12.25;;;;;;;;5052352;28;51446;-48
2022/05/05 02:56:11;;;;;;;;;17.00;14.00;;;;;;;;5036551;28;52660;-48
2022/05/05 02:58:36;;;;;;;;;14.75;13.25;;;;;;;;5029022;28;51052;-50
2022/05/05 03:01:02;;;;;;;;;15.00;14.00;;;;;;;;5036201;28;51107;-49
2022/05/05 03:03:27;;;;;;;;;17.25;16.50;;;;;;;;5039187;28;51910;-49
2022/05/05 03:05:52;;;;;;;;;17.25;16.75;;;;;;;;5044091;28;51183;-48
2022/05/05 03:08:18;;;;;;;;;16.25;15.25;;;;;;;;5037456;28;51058;-51
2022/05/05 03:10:43;;;;;;;;;14.00;13.25;;;;;;;;5040978;28;51353;-50
2022/05/05 03:13:08;;;;;;;;;15.00;14.00;;;;;;;;5036885;28;51943;-49
2022/05/05 03:15:33;;;;;;;;;16.25;15.25;;;;;;;;5046649;28;50961;-48
2022/05/05 03:17:59;;;;;;;;;16.00;13.75;;;;;;;;5032208;28;51138;-49
2022/05/05 03:20:24;;;;;;;;;17.00;15.50;;;;;;;;5033786;28;51072;-48
2022/05/05 03:22:49;;;;;;;;;17.00;16.50;;;;;;;;5049326;28;52250;-49
2022/05/05 03:25:14;;;;;;;;;24.00;23.75;;;;;;;;5029650;28;51171;-50
2022/05/05 03:27:40;;;;;;;;;16.00;15.50;;;;;;;;5044442;28;51200;-49
2022/05/05 03:30:06;;;;;;;;;14.00;13.25;;;;;;;;5052569;28;51268;-48
2022/05/05 03:32:32;;;;;;;;;16.75;15.50;;;;;;;;5037950;28;51075;-50
2022/05/05 03:34:58;;;;;;;;;15.00;13.00;;;;;;;;5032088;28;51151;-49
2022/05/05 03:37:23;;;;;;;;;14.00;13.50;;;;;;;;5033737;28;51123;-49
2022/05/05 03:39:48;;;;;;;;;15.00;14.75;;;;;;;;5028109;28;51433;-52
2022/05/05 03:42:14;;;;;;;;;18.00;16.25;;;;;;;;5048664;28;52096;-50
2022/05/05 03:44:39;;;;;;;;;18.00;15.50;;;;;;;;5040185;28;51093;-49
2022/05/05 03:47:04;;;;;;;;;17.25;15.50;;;;;;;;5050549;28;52598;-51
2022/05/05 03:49:30;;;;;;;;;13.75;12.50;;;;;;;;5046990;28;51274;-47
2022/05/05 03:51:58;;;;;;;;;16.75;14.25;;;;;;;;5051638;28;51811;-47
2022/05/05 03:54:24;;;;;;;;;14.00;14.00;;;;;;;;5035705;28;51000;-48
2022/05/05 03:56:49;;;;;;;;;17.75;15.25;;;;;;;;5035414;28;51046;-50
2022/05/05 03:59:14;;;;;;;;;8.25;7.75;;;;;;;;5035212;28;51174;-48
2022/05/05 04:01:39;;;;;;;;;16.00;13.25;;;;;;;;5045806;28;50975;-49
2022/05/05 04:04:04;;;;;;;;;16.50;16.00;;;;;;;;5035641;28;50959;-48
2022/05/05 04:06:30;;;;;;;;;18.00;16.00;;;;;;;;5039164;28;51166;-49
2022/05/05 04:08:55;;;;;;;;;15.00;14.00;;;;;;;;5054269;28;51258;-48
2022/05/05 04:11:20;;;;;;;;;17.00;15.25;;;;;;;;5045360;28;51744;-52
2022/05/05 04:13:46;;;;;;;;;15.75;13.75;;;;;;;;5041200;28;51146;-48
2022/05/05 04:16:11;;;;;;;;;13.50;13.00;;;;;;;;5038163;28;50842;-47
2022/05/05 04:18:37;;;;;;;;;15.75;13.25;;;;;;;;5048794;28;51107;-50
2022/05/05 04:21:02;;;;;;;;;14.50;14.50;;;;;;;;5025231;28;53821;-48
2022/05/05 04:23:28;;;;;;;;;14.00;13.25;;;;;;;;5024795;28;51388;-51
2022/05/05 04:25:53;;;;;;;;;15.00;14.75;;;;;;;;5051750;28;51246;-48
2022/05/05 04:28:18;;;;;;;;;15.25;14.00;;;;;;;;5044796;28;51095;-51
2022/05/05 04:30:44;;;;;;;;;15.00;14.50;;;;;;;;5042264;28;51811;-50
2022/05/05 04:33:10;;;;;;;;;15.25;14.00;;;;;;;;5035238;28;51118;-48
2022/05/05 04:35:36;;;;;;;;;16.00;16.00;;;;;;;;5041256;28;51230;-49
2022/05/05 04:38:01;;;;;;;;;14.50;14.25;;;;;;;;5032794;28;51079;-49
2022/05/05 04:40:26;;;;;;;;;18.00;16.00;;;;;;;;5034148;28;51796;-48
2022/05/05 04:42:52;;;;;;;;;16.50;16.00;;;;;;;;5039954;28;51234;-49
2022/05/05 04:45:17;;;;;;;;;19.25;18.00;;;;;;;;5040510;28;51812;-49
2022/05/05 04:47:43;;;;;;;;;20.00;20.00;;;;;;;;5031137;28;51267;-49
2022/05/05 04:50:08;;;;;;;;;19.00;17.25;;;;;;;;5044294;28;51004;-49
2022/05/05 04:52:33;;;;;;;;;18.25;17.50;;;;;;;;5040056;28;51127;-49
2022/05/05 04:54:59;;;;;;;;;16.50;14.75;;;;;;;;5016440;28;51136;-48
2022/05/05 04:57:25;;;;;;;;;17.75;16.25;;;;;;;;5050352;28;51071;-49
2022/05/05 04:59:50;;;;;;;;;21.50;18.25;;;;;;;;5054020;28;52020;-48
2022/05/05 05:02:15;;;;;;;;;25.00;24.00;;;;;;;;5038082;28;51767;-48
2022/05/05 05:04:41;;;;;;;;;22.00;20.75;;;;;;;;5031684;28;52787;-47
2022/05/05 05:07:06;;;;;;;;;25.00;23.50;;;;;;;;5041530;28;51021;-49
2022/05/05 05:09:31;;;;;;;;;22.00;20.75;;;;;;;;5046612;28;50912;-49
2022/05/05 05:11:56;;;;;;;;;22.25;21.00;;;;;;;;5041640;28;51119;-48
2022/05/05 05:14:21;;;;;;;;;21.25;20.00;;;;;;;;5046989;28;50926;-49
2022/05/05 05:16:47;;;;;;;;;19.00;17.50;;;;;;;;5043271;28;51151;-47
2022/05/05 05:19:12;;;;;;;;;23.00;20.00;;;;;;;;5039182;28;51650;-47
2022/05/05 05:21:37;;;;;;;;;22.00;20.50;;;;;;;;5035469;28;50982;-51
2022/05/05 05:24:02;;;;;;;;;19.75;19.25;;;;;;;;5052991;28;51127;-49
2022/05/05 05:26:28;;;;;;;;;23.25;21.50;;;;;;;;5044868;28;50988;-48
2022/05/05 05:28:53;;;;;;;;;26.75;25.75;;;;;;;;5037095;28;51784;-48
2022/05/05 05:31:20;;;;;;;;;27.75;24.25;;;;;;;;5035897;28;51056;-48
2022/05/05 05:33:45;;;;;;;;;26.75;25.25;;;;;;;;5028100;28;51201;-48
2022/05/05 05:36:10;;;;;;;;;21.00;19.75;;;;;;;;5041167;28;51160;-49
2022/05/05 05:38:35;;;;;;;;;33.75;27.25;;;;;;;;5037384;28;51096;-51
2022/05/05 05:41:01;;;;;;;;;26.50;24.75;;;;;;;;5040603;28;50980;-50
2022/05/05 05:43:26;;;;;;;;;23.75;22.75;;;;;;;;5051738;28;51178;-48
2022/05/05 05:45:51;;;;;;;;;36.50;33.75;;;;;;;;5039659;28;51153;-48
2022/05/05 05:48:16;;;;;;;;;23.50;23.50;;;;;;;;5049402;28;52172;-47
2022/05/05 05:50:41;;;;;;;;;35.00;27.75;;;;;;;;5037385;28;51046;-49
2022/05/05 05:53:08;;;;;;;;;23.50;23.50;;;;;;;;5032312;28;51345;-49
2022/05/05 05:55:33;;;;;;;;;31.50;29.00;;;;;;;;5035353;28;51154;-55
2022/05/05 05:57:59;;;;;;;;;33.75;29.25;;;;;;;;5032378;28;51909;-48
2022/05/05 06:00:24;;;;;;;;;30.00;28.00;;;;;;;;5036039;28;50934;-49
2022/05/05 06:05:33;;;;;;;;;30.00;28.50;;;;;;;;5036327;28;51226;-50
2022/05/05 06:07:59;;;;;;;;;27.50;25.25;;;;;;;;5022924;28;52806;-49
2022/05/05 06:10:25;;;;;;;;;33.50;29.50;;;;;;;;5044203;28;50960;-49
2022/05/05 06:12:50;;;;;;;;;29.25;25.75;;;;;;;;5031036;28;51279;-47
2022/05/05 06:15:15;;;;;;;;;27.00;26.00;;;;;;;;5040703;28;51199;-48
2022/05/05 06:17:41;;;;;;;;;27.25;25.25;;;;;;;;5046529;28;51786;-50
2022/05/05 06:20:06;;;;;;;;;29.75;27.25;;;;;;;;5052958;28;51092;-48
2022/05/05 06:22:32;;;;;;;;;28.75;25.50;;;;;;;;5022146;28;51506;-47
2022/05/05 06:24:58;;;;;;;;;30.50;26.25;;;;;;;;5049082;28;51129;-49
2022/05/05 06:27:23;;;;;;;;;26.25;25.25;;;;;;;;5043585;28;50920;-48
2022/05/05 06:29:48;;;;;;;;;27.75;26.75;;;;;;;;5044547;28;51102;-47
2022/05/05 06:32:17;;;;;;;;;31.25;29.25;;;;;;;;5033979;28;51220;-51
2022/05/05 06:34:42;;;;;;;;;23.00;23.00;;;;;;;;5049125;28;51668;-48
2022/05/05 06:37:08;;;;;;;;;30.00;26.25;;;;;;;;5051402;28;51005;-49
2022/05/05 06:39:33;;;;;;;;;27.75;24.75;;;;;;;;5041858;28;51173;-49
2022/05/05 06:41:59;;;;;;;;;27.75;25.75;;;;;;;;5052327;28;51145;-49
2022/05/05 06:44:24;;;;;;;;;27.50;25.00;;;;;;;;5018839;28;51313;-50
2022/05/05 06:46:50;;;;;;;;;27.50;25.00;;;;;;;;5034966;28;51791;-49
2022/05/05 06:49:17;;;;;;;;;28.50;27.50;;;;;;;;5036937;28;51230;-48
2022/05/05 06:51:42;;;;;;;;;29.75;29.50;;;;;;;;5031750;28;51247;-49
2022/05/05 06:54:07;;;;;;;;;26.00;25.00;;;;;;;;5039379;28;51291;-50
2022/05/05 06:56:32;;;;;;;;;33.50;30.50;;;;;;;;5038636;28;51814;-51
2022/05/05 06:58:57;;;;;;;;;29.25;26.25;;;;;;;;5035094;28;51216;-49
2022/05/05 07:06:50;;;;;;;;;30.00;27.00;;;;;;;;5034912;28;51081;-48
2022/05/05 07:11:59;;;;;;;;;34.50;27.25;;;;;;;;5036357;28;51305;-49
2022/05/05 07:14:25;;;;;;;;;26.00;24.25;;;;;;;;5037255;28;51273;-48
2022/05/05 07:16:50;;;;;;;;;28.25;27.50;;;;;;;;5031687;28;51245;-48
2022/05/05 07:19:15;;;;;;;;;29.00;26.75;;;;;;;;5047002;28;50905;-50
2022/05/05 07:21:40;;;;;;;;;26.25;23.25;;;;;;;;5036317;28;51158;-48
2022/05/05 07:24:06;;;;;;;;;32.25;30.75;;;;;;;;5036452;28;51346;-50
2022/05/05 07:26:31;;;;;;;;;30.25;28.25;;;;;;;;5011320;28;51944;-51
2022/05/05 07:28:56;;;;;;;;;30.25;29.00;;;;;;;;5030047;28;51096;-48
2022/05/05 07:31:21;;;;;;;;;26.00;25.00;;;;;;;;5012483;28;51155;-49
2022/05/05 07:33:46;;;;;;;;;31.50;27.75;;;;;;;;5040807;28;51158;-51
2022/05/05 07:36:12;;;;;;;;;29.00;26.00;;;;;;;;5032528;28;52202;-48
2022/05/05 07:38:37;;;;;;;;;29.00;28.00;;;;;;;;5025845;28;51081;-49
2022/05/05 07:41:03;;;;;;;;;26.25;24.75;;;;;;;;5053160;28;50917;-49
2022/05/05 07:43:28;;;;;;;;;28.00;28.00;;;;;;;;5047091;28;51299;-51
2022/05/05 07:45:54;;;;;;;;;27.25;25.00;;;;;;;;5050768;28;51148;-50
2022/05/05 07:48:19;;;;;;;;;27.25;25.25;;;;;;;;5042831;28;51326;-49
2022/05/05 07:50:46;;;;;;;;;23.75;23.00;;;;;;;;5037026;28;51249;-49
2022/05/05 07:53:11;;;;;;;;;28.50;27.50;;;;;;;;5039049;28;51125;-50
2022/05/05 07:55:36;;;;;;;;;29.00;27.00;;;;;;;;5033019;28;51807;-50
2022/05/05 07:58:02;;;;;;;;;28.25;27.00;;;;;;;;5038643;28;51175;-50
2022/05/05 08:00:27;;;;;;;;;30.00;28.25;;;;;;;;5032411;28;51293;-47
2022/05/05 08:02:52;;;;;;;;;23.25;22.25;;;;;;;;5039434;28;51230;-48
2022/05/05 08:05:18;;;;;;;;;27.75;27.00;;;;;;;;5045372;28;51722;-47
2022/05/05 08:07:44;;;;;;;;;34.75;29.50;;;;;;;;5031711;28;51135;-48
2022/05/05 08:10:10;;;;;;;;;28.00;26.50;;;;;;;;5037817;28;51236;-50
2022/05/05 08:12:35;;;;;;;;;26.00;23.25;;;;;;;;5037824;28;51048;-49
2022/05/05 08:15:04;;;;;;;;;28.50;26.25;;;;;;;;5028991;28;51094;-49
2022/05/05 08:17:29;;;;;;;;;29.75;27.75;;;;;;;;5037063;28;51138;-49
2022/05/05 08:19:54;;;;;;;;;28.00;25.50;;;;;;;;5034882;28;51216;-50
2022/05/05 08:22:19;;;;;;;;;30.00;25.75;;;;;;;;5041176;28;51088;-48
2022/05/05 08:30:13;;;;;;;;;25.00;24.00;;;;;;;;5045728;28;51249;-55
2022/05/05 08:32:38;;;;;;;;;23.00;22.00;;;;;;;;5050862;28;51097;-50
2022/05/05 08:35:03;;;;;;;;;26.50;23.25;;;;;;;;5041737;28;51749;-47
2022/05/05 08:37:29;;;;;;;;;23.00;22.00;;;;;;;;5049559;28;51143;-49
2022/05/05 08:39:54;;;;;;;;;21.33;20.33;;;;;;;;5025900;28;51009;-48
2022/05/05 08:42:20;;;;;;;;;24.75;22.00;;;;;;;;5051260;28;51266;-49
2022/05/05 08:44:45;;;;;;;;;23.33;21.33;;;;;;;;5037388;28;52150;-49
2022/05/05 08:47:12;;;;;;;;;22.00;21.75;;;;;;;;5035863;28;50981;-49
2022/05/05 08:49:40;;;;;;;;;24.00;23.50;;;;;;;;5037199;28;52507;-51
2022/05/05 08:52:08;;;;;;;;;23.00;23.00;;;;;;;;5037969;28;51118;-49
2022/05/05 08:54:34;;;;;;;;;18.00;17.00;;;;;;;;5039203;28;51877;-52
2022/05/05 08:56:59;;;;;;;;;22.00;21.00;;;;;;;;5042633;28;51245;-49
2022/05/05 08:59:25;;;;;;;;;21.33;21.33;;;;;;;;5034681;28;51112;-47
2022/05/05 09:01:51;;;;;;;;;20.33;20.00;;;;;;;;5046893;28;51326;-51
2022/05/05 09:04:18;;;;;;;;;22.75;22.50;;;;;;;;5041901;28;51890;-48
2022/05/05 09:06:46;;;;;;;;;22.00;20.67;;;;;;;;5038332;28;53016;-49
2022/05/05 09:09:31;;;;;;;;;20.25;19.00;;;;;;;;5044446;28;51107;-49
2022/05/05 09:12:06;;;;;;;;;23.75;23.25;;;;;;;;5033657;28;51106;-48
2022/05/05 09:14:35;;;;;;;;;30.50;28.50;;;;;;;;5034435;28;51923;-51
2022/05/05 09:17:06;;;;;;;;;22.00;21.00;;;;;;;;5038591;28;51064;-52
2022/05/05 09:19:36;;;;;;;;;21.50;20.75;;;;;;;;5042851;28;51085;-48
2022/05/05 09:22:05;;;;;;;;;22.50;22.00;;;;;;;;5032073;28;51261;-49
2022/05/05 09:24:36;;;;;;;;;17.00;16.00;;;;;;;;5009735;28;51136;-49
2022/05/05 09:27:18;;;;;;;;;20.00;19.00;;;;;;;;5040750;28;51150;-51
2022/05/05 09:29:56;;;;;;;;;18.00;17.67;;;;;;;;5033330;28;50963;-48
2022/05/05 09:32:25;;;;;;;;;15.67;15.67;;;;;;;;5032439;28;51759;-49
2022/05/05 09:35:03;;;;;;;;;15.00;14.00;;;;;;;;5014738;28;52072;-50
2022/05/05 09:37:29;;;;;;;;;16.67;15.00;;;;;;;;5032955;28;51540;-50
2022/05/05 09:39:55;;;;;;;;;13.00;12.67;;;;;;;;5045779;28;51143;-48
2022/05/05 09:42:39;;;;;;;;;13.33;13.33;;;;;;;;5052856;28;51393;-50
2022/05/05 09:45:16;;;;;;;;;14.00;13.00;;;;;;;;5044028;28;51113;-51
2022/05/05 09:47:42;;;;;;;;;12.00;12.00;;;;;;;;5043848;28;51006;-50
2022/05/05 09:50:07;;;;;;;;;12.33;12.00;;;;;;;;5041926;28;51016;-48
2022/05/05 09:58:03;;;;;;;;;14.33;13.33;;;;;;;;5034761;28;51069;-49
2022/05/05 10:05:46;;;;;;;;;9.67;9.67;;;;;;;;5042298;28;51036;-52
2022/05/05 10:08:14;;;;;;;;;11.00;11.00;;;;;;;;5052354;28;50933;-49
2022/05/05 10:10:40;;;;;;;;;12.67;12.67;;;;;;;;5024430;28;51099;-48
2022/05/05 10:13:07;;;;;;;;;12.67;12.67;;;;;;;;5038136;28;51028;-49
2022/05/05 10:15:35;;;;;;;;;12.67;12.00;;;;;;;;5044518;28;52860;-49
2022/05/05 10:18:02;;;;;;;;;10.00;9.00;;;;;;;;5032010;28;50925;-51
2022/05/05 10:20:28;;;;;;;;;9.00;9.00;;;;;;;;5013348;28;51344;-48
2022/05/05 10:23:09;;;;;;;;;10.67;10.67;;;;;;;;5033603;28;51138;-49
2022/05/05 10:25:37;;;;;;;;;10.67;10.67;;;;;;;;5030851;28;52877;-51
2022/05/05 10:28:02;;;;;;;;;8.67;8.67;;;;;;;;5032537;28;51294;-49
2022/05/05 10:30:34;;;;;;;;;12.00;10.67;;;;;;;;5031636;28;51273;-50
2022/05/05 10:33:00;;;;;;;;;11.00;11.00;;;;;;;;5031865;28;51447;-48
2022/05/05 10:35:26;;;;;;;;;12.00;11.33;;;;;;;;5029532;28;51792;-48
2022/05/05 10:37:51;;;;;;;;;9.67;9.33;;;;;;;;5027048;28;51176;-51
2022/05/05 10:40:17;;;;;;;;;11.33;11.33;;;;;;;;5013553;28;51147;-49
2022/05/05 10:42:45;;;;;;;;;11.33;10.67;;;;;;;;5027864;28;51290;-48
2022/05/05 10:45:13;;;;;;;;;11.33;10.33;;;;;;;;5031617;28;51601;-49
2022/05/05 10:48:06;;;;;;;;;9.33;9.33;;;;;;;;5034826;28;51159;-51
2022/05/05 10:50:33;;;;;;;;;12.00;12.00;;;;;;;;5035439;28;51113;-48
2022/05/05 10:52:59;;;;;;;;;10.67;9.67;;;;;;;;5017078;28;51529;-49
2022/05/05 10:55:26;;;;;;;;;9.67;8.33;;;;;;;;5041310;28;51275;-49
2022/05/05 10:57:52;;;;;;;;;12.00;11.00;;;;;;;;5030527;28;51080;-49
2022/05/05 11:00:22;;;;;;;;;10.33;9.67;;;;;;;;5029765;28;51145;-47
2022/05/05 11:03:03;;;;;;;;;9.00;8.67;;;;;;;;5038374;28;50998;-49
2022/05/05 11:05:31;;;;;;;;;9.33;9.33;;;;;;;;5036027;28;51380;-49
2022/05/05 11:08:09;;;;;;;;;11.00;9.67;;;;;;;;5012467;28;51041;-52
2022/05/05 11:10:40;;;;;;;;;11.67;10.33;;;;;;;;5040798;28;51141;-48
2022/05/05 11:13:06;;;;;;;;;11.33;11.00;;;;;;;;5037450;28;51341;-51
2022/05/05 11:23:56;;;;;;;;;11.67;8.33;;;;;;;;5041418;28;51047;-49
2022/05/05 11:26:21;;;;;;;;;9.00;8.00;;;;;;;;5024711;28;52920;-49
2022/05/05 11:28:48;;;;;;;;;8.00;8.00;;;;;;;;5035083;28;51115;-50
2022/05/05 11:31:19;;;;;;;;;8.67;8.67;;;;;;;;5040390;28;51113;-48
2022/05/05 11:33:48;;;;;;;;;9.33;9.33;;;;;;;;5031179;28;51281;-50
2022/05/05 11:36:13;;;;;;;;;7.67;7.67;;;;;;;;5030744;28;53082;-49
2022/05/05 11:38:41;;;;;;;;;7.00;7.00;;;;;;;;5028541;28;51255;-50
2022/05/05 11:41:07;;;;;;;;;8.33;8.00;;;;;;;;5028559;28;51266;-52
2022/05/05 11:46:17;;;;;;;;;8.00;7.33;;;;;;;;5031129;28;51227;-49
2022/05/05 11:48:45;;;;;;;;;8.33;8.00;;;;;;;;5008492;28;51545;-49
2022/05/05 11:51:19;;;;;;;;;6.00;6.00;;;;;;;;5030606;28;51278;-50
2022/05/05 11:53:45;;;;;;;;;7.67;7.00;;;;;;;;5030819;28;51290;-51
2022/05/05 11:56:11;;;;;;;;;6.33;6.00;;;;;;;;5028791;28;51992;-48
2022/05/05 12:01:40;;;;;;;;;7.33;7.33;;;;;;;;5029882;28;51911;-53
2022/05/05 12:04:05;;;;;;;;;6.00;6.00;;;;;;;;5032602;28;51089;-49
2022/05/05 12:06:31;;;;;;;;;8.00;7.00;;;;;;;;5030892;28;51576;-50
2022/05/05 12:08:57;;;;;;;;;6.00;6.00;;;;;;;;5009112;28;51393;-55
2022/05/05 12:11:26;;;;;;;;;8.33;8.00;;;;;;;;5028692;28;51255;-49
2022/05/05 12:13:51;;;;;;;;;7.00;6.67;;;;;;;;5031618;28;51060;-49
2022/05/05 12:16:17;;;;;;;;;6.33;6.33;;;;;;;;5029986;28;51408;-48
2022/05/05 12:18:51;;;;;;;;;7.00;7.00;;;;;;;;5041559;28;51163;-49
2022/05/05 12:21:23;;;;;;;;;4.67;4.00;;;;;;;;5035410;28;51374;-50
2022/05/05 12:23:55;;;;;;;;;6.00;5.33;;;;;;;;5022666;28;51386;-55
2022/05/05 12:26:21;;;;;;;;;6.67;6.67;;;;;;;;5034992;28;52220;-51
2022/05/05 12:28:49;;;;;;;;;5.33;5.00;;;;;;;;5035812;28;50992;-48
2022/05/05 12:31:24;;;;;;;;;7.00;6.33;;;;;;;;5047741;28;51053;-56
2022/05/05 12:33:50;;;;;;;;;7.00;7.00;;;;;;;;5016958;28;51010;-50
2022/05/05 12:36:17;;;;;;;;;6.33;5.67;;;;;;;;5016344;28;53333;-50
2022/05/05 12:38:42;;;;;;;;;9.00;6.00;;;;;;;;5040797;28;51105;-48
2022/05/05 12:41:08;;;;;;;;;9.00;9.00;;;;;;;;5032289;28;51096;-51
2022/05/05 12:43:34;;;;;;;;;8.00;8.00;;;;;;;;5033913;28;51178;-50
2022/05/05 12:46:03;;;;;;;;;6.00;6.00;;;;;;;;5032498;28;51677;-47
2022/05/05 12:48:28;;;;;;;;;6.00;6.00;;;;;;;;5037908;28;51307;-51
2022/05/05 12:50:53;;;;;;;;;2.33;2.00;;;;;;;;5041768;28;51006;-48
2022/05/05 13:01:38;;;;;;;;;8.67;7.33;;;;;;;;5029444;28;51075;-51
2022/05/05 13:04:06;;;;;;;;;6.67;5.67;;;;;;;;5036775;28;51248;-48
2022/05/05 13:06:31;;;;;;;;;6.33;6.33;;;;;;;;5033754;28;51895;-49
2022/05/05 13:08:57;;;;;;;;;16.75;16.75;;;;;;;;5044459;28;50995;-48
2022/05/05 13:11:22;;;;;;;;;6.67;6.00;;;;;;;;5015546;28;51078;-48
2022/05/05 13:13:48;;;;;;;;;8.00;8.00;;;;;;;;5034568;28;51215;-49
2022/05/05 13:16:14;;;;;;;;;9.33;7.67;;;;;;;;5039395;28;51927;-49
2022/05/05 13:18:39;;;;;;;;;8.00;8.00;;;;;;;;5039299;28;51097;-49
2022/05/05 13:21:05;;;;;;;;;4.00;4.00;;;;;;;;5042357;28;52642;-49
2022/05/05 13:23:30;;;;;;;;;5.00;5.00;;;;;;;;5033476;28;51338;-47
2022/05/05 13:25:55;;;;;;;;;5.00;5.00;;;;;;;;5041450;28;51201;-51
2022/05/05 13:28:21;;;;;;;;;6.33;5.00;;;;;;;;5038214;28;51111;-49
2022/05/05 13:30:46;;;;;;;;;5.67;5.67;;;;;;;;5042430;28;50995;-48
2022/05/05 13:33:11;;;;;;;;;5.00;5.00;;;;;;;;5032187;28;51133;-49
2022/05/05 13:35:36;;;;;;;;;7.67;7.00;;;;;;;;5043547;28;51080;-49
2022/05/05 13:38:02;;;;;;;;;8.00;8.00;;;;;;;;5038603;28;51359;-48
2022/05/05 13:40:27;;;;;;;;;5.00;5.00;;;;;;;;5034114;28;51195;-48
2022/05/05 13:42:52;;;;;;;;;3.67;3.67;;;;;;;;5035441;28;51181;-49
2022/05/05 13:45:18;;;;;;;;;5.67;5.33;;;;;;;;5041961;28;52026;-48
2022/05/05 13:47:45;;;;;;;;;4.00;4.00;;;;;;;;5042262;28;51224;-50
2022/05/05 13:50:11;;;;;;;;;6.00;6.00;;;;;;;;5030164;28;51081;-49
2022/05/05 13:52:37;;;;;;;;;6.00;6.00;;;;;;;;5032175;28;51205;-48
2022/05/05 13:55:03;;;;;;;;;11.67;10.67;;;;;;;;5040704;28;52636;-48
2022/05/05 13:57:28;;;;;;;;;4.00;4.00;;;;;;;;5051130;28;51146;-47
2022/05/05 13:59:54;;;;;;;;;4.33;4.33;;;;;;;;5049751;28;51182;-50
2022/05/05 14:02:20;;;;;;;;;9.00;8.00;;;;;;;;5044930;28;51382;-50
2022/05/05 14:04:45;;;;;;;;;6.00;6.00;;;;;;;;5041175;28;52878;-48
2022/05/05 14:07:11;;;;;;;;;5.33;5.00;;;;;;;;5032965;28;51238;-51
2022/05/05 14:12:20;;;;;;;;;5.67;5.67;;;;;;;;5041785;28;51191;-47
2022/05/05 14:14:45;;;;;;;;;4.33;4.33;;;;;;;;5034271;28;51852;-50
2022/05/05 14:17:11;;;;;;;;;5.00;5.00;;;;;;;;5032680;28;51304;-50
2022/05/05 14:19:37;;;;;;;;;4.00;4.00;;;;;;;;5032634;28;51239;-51
2022/05/05 14:22:02;;;;;;;;;5.00;5.00;;;;;;;;5032354;28;51163;-48
2022/05/05 14:24:27;;;;;;;;;6.67;6.67;;;;;;;;5031553;28;52185;-50
2022/05/05 14:26:53;;;;;;;;;6.00;6.00;;;;;;;;5036222;28;51634;-49
2022/05/05 14:29:18;;;;;;;;;9.00;8.00;;;;;;;;5033053;28;51227;-50
2022/05/05 14:31:44;;;;;;;;;4.33;4.33;;;;;;;;5034683;28;51381;-49
2022/05/05 14:34:09;;;;;;;;;4.00;4.00;;;;;;;;5031659;28;52607;-49
2022/05/05 14:36:35;;;;;;;;;5.00;5.00;;;;;;;;5032021;28;52167;-50
2022/05/05 14:39:00;;;;;;;;;4.00;3.33;;;;;;;;5031352;28;51643;-48
2022/05/05 14:41:25;;;;;;;;;5.00;4.67;;;;;;;;5036567;28;51221;-49
2022/05/05 14:43:51;;;;;;;;;6.67;6.67;;;;;;;;5041014;28;51340;-48
2022/05/05 14:46:16;;;;;;;;;4.00;4.00;;;;;;;;5031742;28;50919;-48
2022/05/05 14:48:42;;;;;;;;;6.67;6.00;;;;;;;;5032201;28;51133;-50
2022/05/05 14:51:08;;;;;;;;;7.00;6.00;;;;;;;;5032287;28;50924;-48
2022/05/05 14:53:33;;;;;;;;;6.00;6.00;;;;;;;;5032029;28;51934;-49
2022/05/05 14:55:59;;;;;;;;;5.00;5.00;;;;;;;;5037851;28;51131;-52
2022/05/05 14:58:24;;;;;;;;;6.00;6.00;;;;;;;;5035849;28;51218;-51
2022/05/05 15:00:49;;;;;;;;;5.33;5.00;;;;;;;;5037045;28;51048;-51
2022/05/05 15:03:15;;;;;;;;;5.00;4.33;;;;;;;;5036838;28;51292;-50
2022/05/05 15:05:40;;;;;;;;;6.00;4.67;;;;;;;;5037750;28;51024;-49
2022/05/05 15:08:06;;;;;;;;;5.00;4.00;;;;;;;;5013845;28;51092;-48
2022/05/05 15:10:31;;;;;;;;;3.33;2.67;;;;;;;;5031937;28;51074;-47
2022/05/05 15:12:56;;;;;;;;;4.67;4.67;;;;;;;;5031878;28;52204;-49
2022/05/05 15:15:21;;;;;;;;;4.33;4.33;;;;;;;;5034822;28;51244;-50
2022/05/05 15:17:47;;;;;;;;;4.33;4.33;;;;;;;;5024181;28;51573;-49
2022/05/05 15:20:13;;;;;;;;;4.00;4.00;;;;;;;;5039777;28;51018;-48
2022/05/05 15:22:39;;;;;;;;;4.67;4.00;;;;;;;;5031380;28;52018;-50